Time;durP1;ratioP1;P1;durP2;ratioP2;P2;SDS_P1;SDS_P2;PMS_P1;PMS_P2;Temp;Humidity;BMP_temperature;BMP_pressure;BME280_temperature;BME280_humidity;BME280_pressure;Samples;Min_cycle;Max_cycle;Signal;HPM_P1;HPM_P2
2022/05/05 00:02:39;;;;;;;13.40;12.10;;;;;;;16.50;66.36;100306.34;10370708;28;20142;-63
2022/05/05 00:07:40;;;;;;;13.77;12.48;;;;;;;16.46;65.83;100299.59;10371914;28;20057;-63
2022/05/05 00:18:03;;;;;;;14.95;13.65;;;;;;;16.36;66.32;100298.88;10371580;28;20123;-63
2022/05/05 00:23:04;;;;;;;13.00;11.90;;;;;;;16.30;66.17;100297.66;10370064;28;20124;-62
2022/05/05 00:28:06;;;;;;;15.50;14.00;;;;;;;16.32;66.66;100300.19;10369006;28;20063;-63
2022/05/05 00:33:07;;;;;;;15.27;13.80;;;;;;;16.34;66.50;100314.31;10374395;28;20103;-63
2022/05/05 00:38:08;;;;;;;15.23;13.82;;;;;;;16.29;66.53;100303.19;10380033;28;20051;-64
2022/05/05 00:43:10;;;;;;;13.65;12.40;;;;;;;16.28;66.51;100301.53;10377730;28;20951;-62
2022/05/05 00:48:13;;;;;;;15.25;13.77;;;;;;;16.08;66.15;100273.03;10376183;28;20811;-63
2022/05/05 00:53:15;;;;;;;15.17;13.57;;;;;;;16.23;65.79;100294.78;10377810;28;20053;-63
2022/05/05 00:58:17;;;;;;;14.40;13.10;;;;;;;16.15;65.64;100292.03;10378221;28;20069;-62
2022/05/05 01:03:19;;;;;;;14.48;13.18;;;;;;;16.07;65.60;100300.88;10378129;28;20053;-62
2022/05/05 01:08:21;;;;;;;14.65;13.35;;;;;;;16.04;65.55;100289.63;10379255;28;20140;-64
2022/05/05 01:13:25;;;;;;;15.05;13.65;;;;;;;16.03;64.71;100315.66;10378151;28;20137;-62
2022/05/05 01:18:26;;;;;;;13.98;12.57;;;;;;;16.06;65.73;100319.84;10388463;28;20622;-62
2022/05/05 01:23:28;;;;;;;15.40;13.90;;;;;;;16.05;64.90;100320.84;10377821;28;20419;-62
2022/05/05 01:28:31;;;;;;;15.05;13.75;;;;;;;16.00;65.10;100320.47;10376872;28;20045;-63
2022/05/05 01:33:32;;;;;;;13.82;12.43;;;;;;;16.01;65.11;100312.25;10377830;28;20164;-64
2022/05/05 01:38:37;;;;;;;14.73;13.27;;;;;;;15.91;65.26;100303.44;10376284;28;20788;-62
2022/05/05 01:43:41;;;;;;;14.95;13.35;;;;;;;15.87;64.96;100302.94;10371782;28;20053;-64
2022/05/05 01:48:42;;;;;;;16.92;15.25;;;;;;;15.89;64.92;100308.16;10372714;28;20423;-63
2022/05/05 01:53:44;;;;;;;15.50;13.93;;;;;;;15.83;65.34;100309.59;10376797;28;20132;-64
2022/05/05 01:58:45;;;;;;;16.25;14.73;;;;;;;15.85;64.36;100321.06;10376342;28;20050;-63
2022/05/05 02:03:46;;;;;;;17.40;14.23;;;;;;;15.89;64.11;100327.78;10375085;28;20068;-64
2022/05/05 02:08:49;;;;;;;15.27;13.80;;;;;;;15.88;63.38;100328.78;10373127;28;20782;-63
2022/05/05 02:13:51;;;;;;;16.63;15.02;;;;;;;15.87;63.50;100327.09;10374406;28;20187;-69
2022/05/05 02:18:52;;;;;;;15.70;14.02;;;;;;;15.73;62.83;100312.38;10373427;28;20046;-62
2022/05/05 02:23:54;;;;;;;15.32;13.82;;;;;;;15.85;62.63;100329.09;10373387;28;20054;-62
2022/05/05 02:28:55;;;;;;;17.50;13.85;;;;;;;15.79;60.97;100327.00;10374409;28;20053;-62
2022/05/05 02:33:57;;;;;;;15.23;11.93;;;;;;;15.73;59.73;100325.78;10373993;28;20053;-63
2022/05/05 02:38:58;;;;;;;12.13;10.85;;;;;;;15.72;58.71;100328.63;10373833;28;20626;-63
2022/05/05 02:44:00;;;;;;;12.57;11.27;;;;;;;15.76;58.38;100327.28;10373549;28;20544;-63
2022/05/05 02:49:01;;;;;;;13.85;11.55;;;;;;;15.79;57.33;100327.00;10372242;28;20582;-63
2022/05/05 02:59:23;;;;;;;13.82;10.88;;;;;;;15.49;56.62;100323.75;10370735;28;20789;-64
2022/05/05 03:04:24;;;;;;;12.85;10.15;;;;;;;15.47;55.96;100330.25;10371340;28;20136;-62
2022/05/05 03:09:26;;;;;;;11.80;10.43;;;;;;;15.49;56.43;100334.47;10371205;28;20880;-63
2022/05/05 03:14:27;;;;;;;12.98;9.98;;;;;;;15.47;56.19;100341.81;10387232;28;20053;-63
2022/05/05 03:19:29;;;;;;;13.13;10.50;;;;;;;15.43;55.34;100342.28;10373199;28;20644;-63
2022/05/05 03:24:30;;;;;;;11.40;10.20;;;;;;;15.39;55.69;100349.78;10375287;28;20411;-65
2022/05/05 03:29:32;;;;;;;9.85;8.40;;;;;;;15.22;56.04;100342.56;10371299;28;20148;-63
2022/05/05 03:34:33;;;;;;;11.05;9.02;;;;;;;15.15;54.79;100337.81;10370550;28;20079;-64
2022/05/05 03:39:35;;;;;;;11.85;8.90;;;;;;;15.32;54.70;100354.06;10382466;28;20077;-64
2022/05/05 03:44:36;;;;;;;9.45;7.97;;;;;;;15.32;54.21;100359.44;10371423;28;20045;-63
2022/05/05 03:49:38;;;;;;;10.95;8.82;;;;;;;15.36;53.64;100364.34;10370605;28;20049;-61
2022/05/05 03:54:41;;;;;;;9.98;9.07;;;;;;;15.38;53.98;100365.03;10370718;28;20212;-63
2022/05/05 03:59:42;;;;;;;10.27;8.30;;;;;;;15.42;55.59;100375.44;10369940;28;20051;-63
2022/05/05 04:04:43;;;;;;;10.95;8.38;;;;;;;15.36;57.84;100376.91;10370135;28;20079;-62
2022/05/05 04:09:45;;;;;;;11.88;8.65;;;;;;;15.34;56.75;100374.38;10376059;28;20317;-62
2022/05/05 04:14:47;;;;;;;12.73;8.75;;;;;;;15.31;56.75;100384.56;10377713;28;20048;-65
2022/05/05 04:19:48;;;;;;;11.40;9.50;;;;;;;15.32;57.94;100388.94;10378271;28;20045;-61
2022/05/05 04:24:50;;;;;;;44.70;10.70;;;;;;;15.36;58.41;100401.06;10377792;28;20716;-64
2022/05/05 04:29:51;;;;;;;13.02;9.45;;;;;;;15.38;58.96;100407.94;10377026;28;20128;-62
2022/05/05 04:34:54;;;;;;;12.43;8.93;;;;;;;15.24;58.42;100389.69;10377787;28;20053;-62
2022/05/05 04:39:56;;;;;;;10.38;9.30;;;;;;;15.31;59.73;100412.25;10374895;28;20053;-63
2022/05/05 04:44:57;;;;;;;10.57;9.57;;;;;;;15.24;59.05;100423.69;10374704;28;20176;-63
2022/05/05 04:49:59;;;;;;;11.18;9.68;;;;;;;15.20;59.06;100429.34;10367017;28;20048;-63
2022/05/05 04:55:01;;;;;;;12.00;10.38;;;;;;;15.22;59.50;100437.25;10339919;28;20049;-64
2022/05/05 05:00:04;;;;;;;10.45;8.98;;;;;;;15.12;59.60;100431.94;10349975;28;20049;-61
2022/05/05 05:05:06;;;;;;;10.73;9.73;;;;;;;15.11;60.06;100438.28;10357261;28;20046;-64
2022/05/05 05:10:08;;;;;;;11.10;10.02;;;;;;;15.09;60.23;100434.09;10352341;28;20068;-61
2022/05/05 05:15:10;;;;;;;11.10;10.05;;;;;;;15.13;60.40;100444.38;10347939;28;20184;-63
2022/05/05 05:20:12;;;;;;;11.75;10.55;;;;;;;15.10;60.03;100452.72;10350707;28;20060;-63
2022/05/05 05:25:13;;;;;;;13.90;10.80;;;;;;;15.10;59.92;100458.06;10346688;28;20049;-64
2022/05/05 05:30:14;;;;;;;11.32;9.63;;;;;;;15.07;59.73;100461.03;10349936;28;20052;-62
2022/05/05 05:35:16;;;;;;;12.93;10.95;;;;;;;15.10;60.34;100463.44;10348363;28;20352;-62
2022/05/05 05:40:17;;;;;;;12.85;10.70;;;;;;;15.14;60.19;100469.34;10349886;28;20041;-63
2022/05/05 05:45:19;;;;;;;13.50;9.38;;;;;;;15.00;59.50;100458.09;10350590;28;20135;-62
2022/05/05 05:50:21;;;;;;;10.80;9.23;;;;;;;15.10;59.93;100474.16;10350872;28;20047;-63
2022/05/05 05:55:22;;;;;;;13.65;9.45;;;;;;;15.09;59.84;100469.78;10361205;28;20107;-62
2022/05/05 06:00:24;;;;;;;11.82;8.85;;;;;;;15.07;60.06;100469.06;10359548;28;21256;-63
2022/05/05 06:05:26;;;;;;;9.30;8.40;;;;;;;15.16;60.15;100488.78;10350778;28;20063;-62
2022/05/05 06:10:28;;;;;;;9.02;8.07;;;;;;;15.14;60.47;100486.25;10346002;28;20148;-62
2022/05/05 06:15:30;;;;;;;9.07;7.82;;;;;;;15.22;58.67;100490.03;10345954;28;20124;-62
2022/05/05 06:20:32;;;;;;;11.23;8.00;;;;;;;15.31;60.11;100505.25;10348837;28;20065;-60
2022/05/05 06:25:34;;;;;;;9.30;8.32;;;;;;;15.29;58.47;100504.56;10342981;28;20450;-62
2022/05/05 06:30:35;;;;;;;11.02;8.18;;;;;;;15.30;57.32;100506.25;10340224;28;20049;-61
2022/05/05 06:35:37;;;;;;;12.32;8.52;;;;;;;15.29;57.75;100521.47;10340842;28;20045;-61
2022/05/05 06:40:38;;;;;;;12.32;9.32;;;;;;;15.33;58.72;100530.09;10346355;28;20551;-61
2022/05/05 06:45:40;;;;;;;12.77;8.43;;;;;;;15.37;59.09;100531.47;10344310;28;20073;-60
2022/05/05 06:50:42;;;;;;;13.00;8.65;;;;;;;15.25;59.09;100516.56;10340931;28;20053;-61
2022/05/05 06:55:43;;;;;;;13.30;8.95;;;;;;;15.35;58.75;100542.34;10342547;28;20045;-62
2022/05/05 07:06:05;;;;;;;11.82;8.82;;;;;;;15.41;58.79;100540.91;10341721;28;20385;-61
2022/05/05 07:11:07;;;;;;;8.90;7.53;;;;;;;15.20;59.50;100535.78;10342861;28;20065;-60
2022/05/05 07:16:11;;;;;;;;;;;;;;;15.30;58.83;100555.38;10360705;28;21218;-61
2022/05/05 07:21:12;;;;;;;9.68;8.50;;;;;;;15.30;59.37;100554.53;10341853;28;19931;-62
2022/05/05 07:26:14;;;;;;;9.40;8.30;;;;;;;15.42;59.12;100556.03;10341209;28;20349;-61
2022/05/05 07:31:17;;;;;;;13.13;7.55;;;;;;;15.44;58.23;100543.28;10344361;28;20126;-61
2022/05/05 07:36:19;;;;;;;10.90;7.53;;;;;;;15.65;57.74;100563.69;10343989;28;20049;-61
2022/05/05 07:41:22;;;;;;;9.05;6.90;;;;;;;15.70;57.40;100561.38;10343910;28;20590;-61
2022/05/05 07:46:24;;;;;;;9.38;8.38;;;;;;;15.68;57.97;100564.22;10353185;28;20057;-60
2022/05/05 07:51:25;;;;;;;10.05;8.10;;;;;;;15.51;57.97;100536.34;10349217;28;20053;-60
2022/05/05 07:56:27;;;;;;;11.05;7.38;;;;;;;15.72;57.27;100564.78;10350315;28;20068;-65
2022/05/05 08:01:29;;;;;;;8.38;7.30;;;;;;;15.72;57.41;100576.34;10351136;28;20060;-61
2022/05/05 08:06:31;;;;;;;9.52;7.93;;;;;;;15.75;57.55;100577.91;10352923;28;20124;-59
2022/05/05 08:11:34;;;;;;;10.80;8.65;;;;;;;15.76;57.63;100582.25;10352423;28;20053;-62
2022/05/05 08:16:35;;;;;;;11.15;8.60;;;;;;;15.77;57.88;100589.31;10357746;28;20076;-63
2022/05/05 08:21:37;;;;;;;11.30;8.40;;;;;;;15.77;58.07;100599.22;10360487;28;20064;-62
2022/05/05 08:31:58;;;;;;;10.55;7.80;;;;;;;15.83;59.05;100609.38;10353381;28;20049;-62
2022/05/05 08:37:00;;;;;;;9.70;8.70;;;;;;;15.82;58.67;100608.56;10367520;28;20057;-62
2022/05/05 08:42:03;;;;;;;10.93;8.63;;;;;;;15.88;58.77;100609.78;10354492;28;20056;-63
2022/05/05 08:47:09;;;;;;;9.13;8.13;;;;;;;16.10;58.56;100627.31;10349420;28;20050;-62
2022/05/05 08:52:17;;;;;;;12.60;9.25;;;;;;;16.28;57.88;100618.47;10344616;28;20088;-62
2022/05/05 08:57:18;;;;;;;11.27;9.20;;;;;;;16.49;57.53;100627.06;10345583;28;20076;-62
2022/05/05 09:02:21;;;;;;;12.15;9.27;;;;;;;16.60;57.50;100624.16;10348521;28;20412;-62
2022/05/05 09:07:47;;;;;;;13.48;9.07;;;;;;;16.90;56.47;100635.53;10351174;28;20062;-61
2022/05/05 09:12:56;;;;;;;11.10;8.32;;;;;;;17.16;56.60;100642.78;10348406;28;20064;-62
2022/05/05 09:18:11;;;;;;;11.20;8.13;;;;;;;17.27;55.16;100633.63;10343960;28;20050;-62
2022/05/05 09:23:36;;;;;;;17.23;9.77;;;;;;;17.26;54.44;100640.84;10351341;28;20045;-63
2022/05/05 09:28:37;;;;;;;10.57;9.43;;;;;;;17.37;54.40;100630.81;10348256;28;20148;-63
2022/05/05 09:33:40;;;;;;;12.90;9.30;;;;;;;17.44;54.01;100640.81;10348962;28;20704;-63
2022/05/05 09:38:50;;;;;;;10.20;7.73;;;;;;;17.45;53.75;100647.84;10350881;28;20057;-62
2022/05/05 09:44:21;;;;;;;15.15;10.00;;;;;;;17.35;54.20;100622.91;10358247;28;20060;-64
2022/05/05 09:49:22;;;;;;;14.23;9.20;;;;;;;17.50;52.54;100642.00;10354262;28;20045;-62
2022/05/05 09:59:51;;;;;;;12.95;8.82;;;;;;;17.51;51.56;100638.31;10342712;28;20046;-62
2022/05/05 10:04:56;;;;;;;10.93;8.02;;;;;;;17.66;51.82;100658.22;10345486;28;20049;-61
2022/05/05 10:09:57;;;;;;;11.90;9.43;;;;;;;17.59;51.61;100657.16;10347087;28;20240;-62
2022/05/05 10:14:59;;;;;;;15.30;10.27;;;;;;;17.57;51.90;100653.81;10345583;28;20651;-61
2022/05/05 10:20:04;;;;;;;14.55;9.18;;;;;;;17.65;51.57;100653.88;10337611;28;20247;-62
2022/05/05 10:25:09;;;;;;;14.10;9.38;;;;;;;17.64;51.27;100652.19;10348309;28;20523;-63
2022/05/05 10:30:16;;;;;;;11.35;10.07;;;;;;;17.64;51.92;100649.47;10367815;28;20052;-65
2022/05/05 10:35:23;;;;;;;10.20;9.00;;;;;;;17.67;51.57;100648.31;10352229;28;20705;-63
2022/05/05 10:40:43;;;;;;;11.43;8.77;;;;;;;17.53;52.40;100630.91;10362166;28;20057;-64
2022/05/05 10:45:45;;;;;;;12.48;8.80;;;;;;;17.60;52.49;100640.03;10351640;28;20643;-63
2022/05/05 10:51:02;;;;;;;12.27;9.15;;;;;;;17.63;51.73;100634.31;10348790;28;20141;-65
2022/05/05 10:56:30;;;;;;;16.42;10.50;;;;;;;17.48;52.41;100638.63;10342450;28;20676;-63
2022/05/05 11:01:44;;;;;;;11.25;8.40;;;;;;;17.54;52.33;100643.38;10345611;28;20532;-61
2022/05/05 11:06:50;;;;;;;10.63;8.75;;;;;;;17.63;52.58;100634.31;10337585;28;21013;-64
2022/05/05 11:12:16;;;;;;;15.27;13.18;;;;;;;17.80;52.07;100634.41;10345101;28;20115;-62
2022/05/05 11:22:44;;;;;;;10.60;8.98;;;;;;;18.23;50.42;100642.53;10336563;28;20132;-62
2022/05/05 11:27:46;;;;;;;12.87;9.60;;;;;;;18.45;50.08;100647.28;10345123;28;20053;-63
2022/05/05 11:32:47;;;;;;;10.65;9.50;;;;;;;18.50;50.38;100647.63;10342231;28;21590;-63
2022/05/05 11:38:09;;;;;;;11.23;9.68;;;;;;;18.62;50.46;100653.53;10340006;28;20053;-63
2022/05/05 11:48:31;;;;;;;11.57;9.32;;;;;;;18.83;50.42;100630.66;10344860;28;20045;-63
2022/05/05 11:53:41;;;;;;;13.45;8.88;;;;;;;19.39;49.64;100650.50;10346216;28;20737;-61
2022/05/05 12:04:02;;;;;;;10.68;8.75;;;;;;;19.91;47.53;100645.69;10348317;28;20049;-61
2022/05/05 12:09:07;;;;;;;10.52;8.15;;;;;;;19.93;46.97;100630.97;10360952;28;20050;-61
2022/05/05 12:14:09;;;;;;;10.65;7.90;;;;;;;20.04;46.17;100637.00;10346237;28;20057;-62
2022/05/05 12:19:17;;;;;;;10.65;7.32;;;;;;;19.83;43.21;100626.78;10345400;28;20743;-62
2022/05/05 12:24:44;;;;;;;8.80;7.32;;;;;;;19.97;42.09;100628.75;10344793;28;20053;-61
2022/05/05 12:29:46;;;;;;;10.48;7.20;;;;;;;19.86;42.79;100621.03;10346519;28;20918;-61
2022/05/05 12:34:47;;;;;;;9.38;7.85;;;;;;;19.87;43.00;100631.66;10364149;28;20054;-62
2022/05/05 12:39:54;;;;;;;8.98;6.00;;;;;;;19.63;44.34;100629.88;10353484;28;20144;-62
2022/05/05 12:44:58;;;;;;;8.13;6.57;;;;;;;19.73;43.80;100633.22;10357162;28;20049;-61
2022/05/05 12:50:00;;;;;;;9.02;7.13;;;;;;;19.73;41.69;100625.09;10354466;28;20049;-62
2022/05/05 13:00:21;;;;;;;4.32;2.78;;;;;;;20.42;36.92;100632.56;10352404;28;20149;-62
2022/05/05 13:05:43;;;;;;;5.70;3.67;;;;;;;20.86;37.62;100639.19;10360513;28;21047;-61
2022/05/05 13:11:04;;;;;;;6.82;3.55;;;;;;;21.50;36.84;100632.56;10353312;28;20500;-62
2022/05/05 13:16:06;;;;;;;7.05;3.50;;;;;;;21.24;36.03;100622.13;10351102;28;20060;-61
2022/05/05 13:21:07;;;;;;;6.82;4.50;;;;;;;21.27;35.60;100619.03;10352760;28;20053;-62
2022/05/05 13:26:11;;;;;;;5.47;3.30;;;;;;;21.33;36.98;100615.59;10352768;28;20061;-62
2022/05/05 13:31:13;;;;;;;6.63;3.47;;;;;;;21.37;36.22;100625.84;10350426;28;20168;-62
2022/05/05 13:36:14;;;;;;;3.15;2.72;;;;;;;21.39;35.38;100598.59;10355164;28;20069;-61
2022/05/05 13:41:15;;;;;;;5.20;3.00;;;;;;;21.62;36.12;100613.94;10356749;28;20118;-61
2022/05/05 13:46:17;;;;;;;7.90;3.85;;;;;;;20.87;36.03;100605.72;10349256;28;20068;-61
2022/05/05 13:51:19;;;;;;;4.63;3.17;;;;;;;20.85;37.50;100607.75;10364765;28;20045;-61
2022/05/05 13:56:20;;;;;;;5.85;3.42;;;;;;;21.27;36.84;100584.72;10348517;28;20060;-61
2022/05/05 14:01:21;;;;;;;8.48;3.65;;;;;;;21.50;35.91;100587.34;10345880;28;20102;-61
2022/05/05 14:06:23;;;;;;;6.13;3.40;;;;;;;21.66;36.61;100588.16;10344796;28;20053;-61
2022/05/05 14:16:45;;;;;;;11.10;4.85;;;;;;;21.35;37.74;100591.91;10350766;28;20571;-62
2022/05/05 14:21:46;;;;;;;9.85;5.50;;;;;;;21.18;38.05;100591.22;10344321;28;20064;-63
2022/05/05 14:26:47;;;;;;;4.78;4.25;;;;;;;21.07;38.26;100584.38;10348270;28;20547;-61
2022/05/05 14:31:49;;;;;;;6.28;4.00;;;;;;;20.54;39.25;100578.09;10347310;28;20057;-60
2022/05/05 14:36:50;;;;;;;7.35;3.90;;;;;;;20.54;39.26;100594.31;10348926;28;20045;-62
2022/05/05 14:41:52;;;;;;;6.22;3.85;;;;;;;20.11;39.83;100583.94;10346274;28;20079;-63
2022/05/05 14:46:53;;;;;;;7.72;3.60;;;;;;;20.28;39.60;100574.72;10343636;28;20079;-61
2022/05/05 14:51:54;;;;;;;7.00;4.15;;;;;;;20.42;39.30;100581.19;10347413;28;20188;-61
2022/05/05 14:56:57;;;;;;;9.77;3.83;;;;;;;20.59;39.41;100578.38;10348756;28;20050;-61
2022/05/05 15:01:59;;;;;;;4.73;3.30;;;;;;;20.79;39.49;100576.03;10347322;28;20565;-61
2022/05/05 15:07:00;;;;;;;5.93;3.40;;;;;;;20.93;38.84;100577.09;10349054;28;20604;-62
2022/05/05 15:12:02;;;;;;;7.88;2.90;;;;;;;21.10;38.86;100577.78;10349229;28;20045;-62
2022/05/05 15:17:05;;;;;;;6.03;3.10;;;;;;;20.89;38.43;100570.38;10344089;28;20103;-62
2022/05/05 15:22:08;;;;;;;4.85;3.30;;;;;;;20.89;38.31;100575.78;10349411;28;20056;-62
2022/05/05 15:27:10;;;;;;;4.63;3.38;;;;;;;20.92;37.65;100591.66;10360236;28;20497;-63
2022/05/05 15:32:11;;;;;;;5.25;3.00;;;;;;;20.63;38.36;100587.81;10343306;28;20531;-62
2022/05/05 15:37:12;;;;;;;4.95;3.25;;;;;;;20.71;37.73;100590.47;10338908;28;20048;-61
2022/05/05 15:42:14;;;;;;;5.30;2.70;;;;;;;20.81;37.56;100577.53;10346756;28;20144;-62
2022/05/05 15:47:15;;;;;;;4.72;2.72;;;;;;;20.81;37.63;100582.94;10346851;28;20053;-62
2022/05/05 15:52:18;;;;;;;5.30;3.35;;;;;;;20.91;37.65;100581.84;10345951;28;21137;-65
2022/05/05 15:57:19;;;;;;;4.78;2.80;;;;;;;20.72;37.50;100569.69;10346543;28;20132;-62
2022/05/05 16:02:22;;;;;;;5.30;2.80;;;;;;;20.69;38.08;100575.44;10323980;28;20058;-62
2022/05/05 16:07:24;;;;;;;5.55;3.30;;;;;;;20.61;38.42;100579.88;10339804;28;20053;-61
2022/05/05 16:12:25;;;;;;;6.55;3.10;;;;;;;20.40;38.75;100556.22;10351330;28;20611;-61
2022/05/05 16:17:27;;;;;;;5.55;3.42;;;;;;;20.51;38.52;100583.81;10353384;28;20079;-61
2022/05/05 16:22:28;;;;;;;5.70;3.03;;;;;;;20.39;38.75;100578.03;10353676;28;20049;-60
2022/05/05 16:32:51;;;;;;;6.07;3.88;;;;;;;20.30;39.69;100593.44;10351907;28;20674;-59
2022/05/05 16:37:54;;;;;;;5.75;3.55;;;;;;;20.20;39.58;100598.25;10349755;28;20560;-61
2022/05/05 16:42:56;;;;;;;5.80;3.07;;;;;;;20.06;40.43;100599.84;10351286;28;20452;-60
2022/05/05 16:47:59;;;;;;;7.25;3.10;;;;;;;20.06;40.63;100603.38;10347515;28;20577;-60
2022/05/05 16:53:00;;;;;;;;;;;;;;;20.01;40.64;100602.22;10350659;28;20057;-60
2022/05/05 16:58:02;;;;;;;5.90;3.08;;;;;;;19.90;41.02;100616.97;10349508;28;19940;-61
2022/05/05 17:03:03;;;;;;;7.10;3.72;;;;;;;19.85;41.12;100613.97;10348220;28;20388;-60
2022/05/05 17:08:05;;;;;;;8.10;3.97;;;;;;;19.75;41.15;100611.44;10340318;28;20258;-60
2022/05/05 17:13:08;;;;;;;7.88;4.45;;;;;;;19.73;41.66;100611.59;10337271;28;20354;-61
2022/05/05 17:18:10;;;;;;;6.20;3.50;;;;;;;19.61;42.14;100615.72;10348140;28;20115;-61
2022/05/05 17:23:11;;;;;;;4.38;3.83;;;;;;;19.59;42.24;100615.03;10352757;28;20061;-62
2022/05/05 17:28:13;;;;;;;6.70;3.50;;;;;;;19.43;43.31;100615.94;10349511;28;20054;-63
2022/05/05 17:33:14;;;;;;;5.97;3.80;;;;;;;19.43;43.42;100614.06;10353600;28;20140;-61
2022/05/05 17:38:16;;;;;;;5.60;3.03;;;;;;;19.38;43.80;100616.44;10353790;28;20398;-60
2022/05/05 17:43:17;;;;;;;5.05;2.92;;;;;;;19.32;44.27;100622.53;10352079;28;20052;-61
2022/05/05 17:53:38;;;;;;;4.05;3.13;;;;;;;19.17;44.86;100624.22;10350353;28;20051;-60
2022/05/05 17:58:40;;;;;;;6.65;3.28;;;;;;;19.12;44.84;100615.81;10350952;28;20069;-60
2022/05/05 18:03:44;;;;;;;5.97;3.05;;;;;;;19.16;45.15;100638.75;10350659;28;20286;-61
2022/05/05 18:08:47;;;;;;;8.88;4.50;;;;;;;19.05;44.90;100648.00;10352437;28;20152;-60
2022/05/05 18:13:48;;;;;;;6.47;3.53;;;;;;;18.87;44.86;100640.09;10343184;28;20045;-61
2022/05/05 18:18:50;;;;;;;4.32;3.72;;;;;;;18.72;45.17;100648.00;10349887;28;20065;-61
2022/05/05 18:23:52;;;;;;;6.85;3.63;;;;;;;18.53;45.67;100649.97;10349483;28;20432;-61
2022/05/05 18:28:54;;;;;;;8.18;3.80;;;;;;;18.49;46.06;100659.41;10347913;28;20196;-62
2022/05/05 18:33:55;;;;;;;7.28;3.55;;;;;;;18.59;46.26;100659.25;10345877;28;20814;-63
2022/05/05 18:38:56;;;;;;;4.03;3.17;;;;;;;18.58;46.07;100660.25;10341083;28;21135;-63
2022/05/05 18:43:58;;;;;;;5.22;2.97;;;;;;;18.54;46.12;100658.94;10355303;28;20068;-62
2022/05/05 18:48:59;;;;;;;8.30;5.30;;;;;;;18.47;46.07;100663.28;10377975;28;20069;-60
2022/05/05 18:54:02;;;;;;;7.35;4.20;;;;;;;18.41;46.71;100672.03;10353988;28;20045;-61
2022/05/05 18:59:03;;;;;;;6.40;3.90;;;;;;;18.37;46.53;100669.69;10341250;28;20057;-62
2022/05/05 19:04:05;;;;;;;6.90;3.97;;;;;;;18.32;46.52;100674.69;10349094;28;21127;-61
2022/05/05 19:09:06;;;;;;;7.97;4.95;;;;;;;18.23;47.13;100669.47;10344110;28;20488;-60
2022/05/05 19:14:08;;;;;;;7.93;4.90;;;;;;;18.19;47.14;100685.09;10347979;28;20049;-61
2022/05/05 19:19:10;;;;;;;5.50;4.25;;;;;;;17.81;48.39;100700.72;10345021;28;20816;-61
2022/05/05 19:24:11;;;;;;;8.07;4.57;;;;;;;17.87;48.96;100707.31;10344051;28;20054;-60
2022/05/05 19:29:13;;;;;;;7.07;4.10;;;;;;;17.83;48.98;100704.09;10343838;28;20567;-61
2022/05/05 19:34:14;;;;;;;10.38;4.07;;;;;;;17.80;48.92;100699.84;10347837;28;20045;-63
2022/05/05 19:39:16;;;;;;;7.15;4.40;;;;;;;17.83;49.13;100718.41;10345412;28;20127;-65
2022/05/05 19:44:18;;;;;;;10.10;4.28;;;;;;;17.71;49.36;100710.75;10333286;28;20575;-63
2022/05/05 19:49:19;;;;;;;6.90;5.00;;;;;;;17.36;50.14;100721.47;10344920;28;21178;-62
2022/05/05 19:54:21;;;;;;;6.47;4.22;;;;;;;17.23;50.62;100724.53;10341700;28;20057;-61
2022/05/05 20:10:03;;;;;;;9.45;4.70;;;;;;;17.05;51.64;100747.91;10340234;28;20057;-61
2022/05/05 20:15:05;;;;;;;6.35;4.25;;;;;;;16.64;52.46;100732.19;10344898;28;20052;-61
2022/05/05 20:20:07;;;;;;;5.32;3.85;;;;;;;16.65;51.71;100744.63;10336091;28;20066;-61
2022/05/05 20:25:08;;;;;;;4.65;4.20;;;;;;;16.51;52.53;100764.78;10335644;28;20766;-61
2022/05/05 20:30:16;;;;;;;4.93;3.58;;;;;;;16.48;52.08;100754.34;10332692;28;20049;-61
2022/05/05 20:35:17;;;;;;;5.18;3.60;;;;;;;16.74;51.40;100764.41;10330246;28;20548;-61
2022/05/05 20:40:19;;;;;;;6.45;3.92;;;;;;;16.82;51.82;100766.31;10351735;28;20073;-62
2022/05/05 20:45:24;;;;;;;6.43;3.85;;;;;;;16.56;51.59;100775.13;10336268;28;20111;-62
2022/05/05 20:50:26;;;;;;;5.80;4.03;;;;;;;16.38;52.77;100772.38;10338845;28;20757;-63
2022/05/05 20:55:28;;;;;;;4.97;3.60;;;;;;;16.48;52.53;100773.16;10346234;28;20052;-60
2022/05/05 21:00:30;;;;;;;7.13;3.75;;;;;;;16.44;51.80;100769.91;10341880;28;20042;-60
2022/05/05 21:05:32;;;;;;;7.10;4.18;;;;;;;16.47;52.09;100776.84;10347174;28;20117;-59
2022/05/05 21:10:33;;;;;;;7.50;4.53;;;;;;;16.52;52.28;100779.91;10348214;28;20119;-65
2022/05/05 21:15:35;;;;;;;5.63;4.13;;;;;;;16.56;52.50;100777.81;10371316;28;20049;-65
2022/05/05 21:25:56;;;;;;;6.40;4.25;;;;;;;16.47;52.44;100779.53;10375147;28;20577;-65
2022/05/05 21:30:58;;;;;;;7.20;4.78;;;;;;;16.48;52.27;100781.22;10374077;28;20135;-64
2022/05/05 21:36:00;;;;;;;5.50;4.00;;;;;;;16.51;51.64;100780.91;10375408;28;20072;-63
2022/05/05 21:41:02;;;;;;;6.13;4.40;;;;;;;16.47;51.31;100771.47;10373856;28;20492;-63
2022/05/05 21:46:05;;;;;;;5.97;4.00;;;;;;;16.53;51.08;100778.06;10372850;28;20045;-63
2022/05/05 21:51:06;;;;;;;5.72;5.05;;;;;;;16.46;51.95;100777.84;10374766;28;20117;-67
2022/05/05 21:56:07;;;;;;;4.22;3.40;;;;;;;16.44;52.31;100777.16;10373254;28;20132;-62
2022/05/05 22:01:09;;;;;;;5.75;4.32;;;;;;;16.41;51.94;100782.81;10370584;28;20144;-63
2022/05/05 22:06:10;;;;;;;4.47;4.05;;;;;;;16.34;52.00;100779.03;10373987;28;20064;-63
2022/05/05 22:11:12;;;;;;;5.13;3.90;;;;;;;16.40;52.26;100799.94;10372302;28;20222;-63
2022/05/05 22:16:13;;;;;;;6.05;4.68;;;;;;;16.40;52.63;100806.13;10371446;28;20720;-63
2022/05/05 22:21:15;;;;;;;6.30;4.70;;;;;;;16.32;52.74;100802.50;10368284;28;20127;-65
2022/05/05 22:26:16;;;;;;;9.38;4.22;;;;;;;16.13;53.18;100796.22;10378625;28;20060;-64
2022/05/05 22:31:19;;;;;;;5.38;3.78;;;;;;;16.12;51.98;100797.19;10376717;28;20141;-65
2022/05/05 22:36:21;;;;;;;6.40;3.42;;;;;;;15.95;51.55;100784.53;10370882;28;20455;-65
2022/05/05 22:46:42;;;;;;;7.97;3.60;;;;;;;15.75;51.32;100816.75;10370793;28;20573;-62
2022/05/05 22:51:44;;;;;;;5.28;3.80;;;;;;;15.76;52.32;100822.97;10370983;28;20121;-65
2022/05/05 22:56:45;;;;;;;4.95;3.38;;;;;;;15.68;52.47;100819.16;10369694;28;20106;-64
2022/05/05 23:01:47;;;;;;;6.80;3.80;;;;;;;15.66;51.56;100812.25;10371199;28;20057;-64
2022/05/05 23:06:48;;;;;;;6.22;3.90;;;;;;;15.68;51.80;100821.84;10371848;28;20056;-63
2022/05/05 23:11:50;;;;;;;4.95;3.90;;;;;;;15.63;52.07;100812.56;10372999;28;20053;-64
2022/05/05 23:16:52;;;;;;;6.45;3.72;;;;;;;15.62;51.13;100817.06;10371729;28;20140;-65
2022/05/05 23:21:53;;;;;;;4.43;3.13;;;;;;;15.51;50.78;100811.84;10372384;28;20116;-65
2022/05/05 23:26:55;;;;;;;4.97;3.55;;;;;;;15.43;51.00;100811.69;10371006;28;20475;-64
2022/05/05 23:31:56;;;;;;;5.75;3.42;;;;;;;15.42;50.88;100810.84;10372031;28;20056;-64
2022/05/05 23:36:58;;;;;;;6.75;3.63;;;;;;;15.17;50.93;100790.81;10372341;28;20570;-64
2022/05/05 23:41:59;;;;;;;5.38;3.00;;;;;;;15.24;50.82;100817.91;10374333;28;20058;-65
2022/05/05 23:47:01;;;;;;;5.13;3.50;;;;;;;15.14;49.89;100812.53;10375253;28;20055;-64
2022/05/05 23:52:03;;;;;;;3.55;2.75;;;;;;;14.87;50.89;100810.53;10372630;28;20269;-64
2022/05/05 23:57:05;;;;;;;5.75;2.95;;;;;;;14.92;51.18;100829.72;10372471;28;20046;-65
